Time;durP1;ratioP1;P1;durP2;ratioP2;P2;SDS_P1;SDS_P2;PMS_P1;PMS_P2;Temp;Humidity;BMP_temperature;BMP_pressure;BME280_temperature;BME280_humidity;BME280_pressure;Samples;Min_cycle;Max_cycle;Signal;HPM_P1;HPM_P2
2020/12/06 00:01:58;;;;;;;110.68;25.60;;;3.50;83.50;;;;;;5073940;28;20201;-78
2020/12/06 00:04:27;;;;;;;111.38;25.52;;;3.50;83.50;;;;;;5074371;28;20231;-78
2020/12/06 00:06:54;;;;;;;110.88;27.05;;;3.50;83.50;;;;;;5074588;28;20672;-78
2020/12/06 00:09:20;;;;;;;109.40;26.23;;;3.50;83.70;;;;;;5076252;28;20315;-78
2020/12/06 00:11:46;;;;;;;101.90;26.77;;;3.50;83.80;;;;;;5075319;28;20232;-78
2020/12/06 00:14:13;;;;;;;115.60;28.95;;;3.50;83.60;;;;;;5076344;28;20213;-78
2020/12/06 00:16:39;;;;;;;110.25;27.92;;;3.50;83.70;;;;;;5076089;28;20304;-78
2020/12/06 00:19:05;;;;;;;102.72;24.90;;;3.50;83.60;;;;;;5076635;28;20312;-78
2020/12/06 00:21:33;;;;;;;115.55;27.83;;;3.50;83.80;;;;;;5076143;28;20221;-78
2020/12/06 00:23:59;;;;;;;100.15;24.35;;;3.50;83.50;;;;;;5078018;28;20287;-79
2020/12/06 00:26:26;;;;;;;107.07;25.05;;;3.50;83.30;;;;;;5079343;28;20205;-79
2020/12/06 00:28:54;;;;;;;104.10;24.10;;;3.50;83.50;;;;;;5094142;28;20220;-78
2020/12/06 00:31:21;;;;;;;115.47;23.40;;;3.50;83.30;;;;;;5083962;28;20256;-78
2020/12/06 00:33:47;;;;;;;108.95;26.00;;;3.50;83.20;;;;;;5082442;28;20249;-78
2020/12/06 00:36:15;;;;;;;111.88;26.48;;;3.50;83.40;;;;;;5097639;28;20185;-79
2020/12/06 00:38:44;;;;;;;107.57;25.90;;;3.50;83.20;;;;;;5097265;28;20221;-78
2020/12/06 00:41:11;;;;;;;111.50;28.23;;;3.50;83.20;;;;;;5098563;22;20289;-69
2020/12/06 00:43:38;;;;;;;106.25;26.52;;;3.50;83.20;;;;;;5071106;28;20303;-69
2020/12/06 00:46:05;;;;;;;98.95;25.00;;;3.50;83.20;;;;;;5070588;28;20211;-69
2020/12/06 00:48:31;;;;;;;116.95;29.70;;;3.50;83.20;;;;;;5071257;28;20205;-69
2020/12/06 00:50:57;;;;;;;107.78;28.45;;;3.50;83.20;;;;;;5071035;28;20224;-69
2020/12/06 00:53:24;;;;;;;112.40;26.25;;;3.50;83.20;;;;;;5071097;28;20201;-69
2020/12/06 00:55:52;;;;;;;103.47;28.90;;;3.40;82.90;;;;;;5070809;28;20270;-69
2020/12/06 00:58:18;;;;;;;101.53;25.20;;;3.40;83.10;;;;;;5070964;28;20208;-69
2020/12/06 01:00:44;;;;;;;115.68;28.80;;;3.40;82.90;;;;;;5070088;28;20221;-70
2020/12/06 01:03:11;;;;;;;102.47;26.95;;;3.40;83.10;;;;;;5070756;28;20701;-70
2020/12/06 01:05:38;;;;;;;107.15;27.50;;;3.40;82.60;;;;;;5070292;28;20248;-70
2020/12/06 01:08:04;;;;;;;105.10;27.35;;;3.40;82.60;;;;;;5070106;28;20204;-70
2020/12/06 01:10:30;;;;;;;113.85;30.17;;;3.40;82.60;;;;;;5070636;28;20228;-70
2020/12/06 01:12:58;;;;;;;123.53;28.65;;;3.30;82.70;;;;;;5071064;28;20621;-70
2020/12/06 01:15:25;;;;;;;100.00;26.70;;;3.40;82.50;;;;;;5073964;28;20209;-71
2020/12/06 01:17:52;;;;;;;102.45;26.00;;;3.30;82.40;;;;;;5074808;28;20449;-71
2020/12/06 01:20:18;;;;;;;107.95;25.95;;;3.30;82.50;;;;;;5074910;28;20227;-70
2020/12/06 01:22:44;;;;;;;115.40;28.63;;;3.30;82.50;;;;;;5074045;28;20211;-71
2020/12/06 01:25:11;;;;;;;102.90;27.20;;;3.30;82.40;;;;;;5074647;28;20295;-71
2020/12/06 01:27:37;;;;;;;106.93;27.83;;;3.30;82.40;;;;;;5074904;28;20219;-70
2020/12/06 01:30:05;;;;;;;118.07;28.95;;;3.30;82.50;;;;;;5074366;28;20225;-70
2020/12/06 01:32:32;;;;;;;104.50;27.50;;;3.30;82.40;;;;;;5074220;28;20243;-70
2020/12/06 01:34:59;;;;;;;109.18;26.70;;;3.30;82.90;;;;;;5074281;28;20687;-70
2020/12/06 01:37:25;;;;;;;113.95;27.27;;;3.30;82.80;;;;;;5074497;28;20209;-70
2020/12/06 01:39:52;;;;;;;108.80;28.83;;;3.30;82.50;;;;;;5073548;28;20240;-70
2020/12/06 01:42:18;;;;;;;103.25;26.05;;;3.30;82.90;;;;;;5074194;28;20258;-70
2020/12/06 01:44:44;;;;;;;103.53;24.63;;;3.30;82.60;;;;;;5074147;28;20211;-70
2020/12/06 01:47:12;;;;;;;108.60;26.08;;;3.30;82.80;;;;;;5074254;28;20211;-71
2020/12/06 01:49:39;;;;;;;108.05;26.67;;;3.30;82.90;;;;;;5073535;28;20225;-70
2020/12/06 01:52:06;;;;;;;115.30;28.25;;;3.30;82.80;;;;;;5073629;28;20244;-71
2020/12/06 01:54:34;;;;;;;116.38;27.83;;;3.30;82.90;;;;;;5073932;28;20235;-70
2020/12/06 01:57:01;;;;;;;99.97;25.10;;;3.30;82.90;;;;;;5074051;28;20205;-70
2020/12/06 01:59:27;;;;;;;103.13;24.35;;;3.30;83.20;;;;;;5073642;28;20236;-70
2020/12/06 02:01:57;;;;;;;110.90;27.70;;;3.30;83.10;;;;;;5073196;28;20197;-71
2020/12/06 02:04:26;;;;;;;133.85;30.23;;;3.30;83.20;;;;;;5073915;28;20205;-70
2020/12/06 02:06:53;;;;;;;121.82;28.33;;;3.30;83.20;;;;;;5072696;28;20400;-70
2020/12/06 02:09:21;;;;;;;111.82;27.25;;;3.30;82.90;;;;;;5073997;28;20208;-70
2020/12/06 02:11:47;;;;;;;105.57;26.85;;;3.30;82.80;;;;;;5073668;28;20277;-70
2020/12/06 02:14:14;;;;;;;112.30;26.73;;;3.30;82.70;;;;;;5073990;28;20586;-71
2020/12/06 02:16:41;;;;;;;119.95;28.02;;;3.30;82.60;;;;;;5072885;28;20205;-70
2020/12/06 02:19:08;;;;;;;116.47;26.88;;;3.30;82.80;;;;;;5073878;28;20296;-70
2020/12/06 02:21:38;;;;;;;116.90;27.08;;;3.30;82.60;;;;;;5072427;28;20658;-70
2020/12/06 02:24:05;;;;;;;115.07;28.92;;;3.30;82.70;;;;;;5073887;28;20647;-71
2020/12/06 02:26:38;;;;;;;104.90;25.50;;;3.30;82.50;;;;;;5073228;28;20209;-70
2020/12/06 02:29:04;;;;;;;104.78;25.38;;;3.30;82.40;;;;;;5073479;28;20296;-72
2020/12/06 02:31:31;;;;;;;133.70;29.92;;;3.20;82.40;;;;;;5070957;28;20225;-70
2020/12/06 02:33:57;;;;;;;123.70;31.27;;;3.20;82.40;;;;;;5073250;28;20212;-70
2020/12/06 02:36:23;;;;;;;128.20;31.55;;;3.20;82.20;;;;;;5073507;28;20204;-70
2020/12/06 02:38:51;;;;;;;120.18;29.75;;;3.20;81.80;;;;;;5072995;28;20201;-70
2020/12/06 02:41:17;;;;;;;114.60;27.67;;;3.20;81.50;;;;;;5072764;28;20235;-70
2020/12/06 02:43:44;;;;;;;125.88;28.60;;;3.10;81.00;;;;;;5072693;28;20259;-70
2020/12/06 02:46:10;;;;;;;125.07;29.90;;;3.10;80.70;;;;;;5072811;28;20213;-69
2020/12/06 02:48:37;;;;;;;126.72;28.45;;;3.10;80.60;;;;;;5073080;28;20205;-70
2020/12/06 02:51:03;;;;;;;111.05;29.20;;;3.10;80.30;;;;;;5072886;28;20235;-70
2020/12/06 02:53:29;;;;;;;132.75;33.45;;;3.10;80.20;;;;;;5072950;28;20742;-71
2020/12/06 02:55:57;;;;;;;123.95;30.70;;;3.00;79.70;;;;;;5072966;28;20201;-71
2020/12/06 02:58:23;;;;;;;128.93;28.20;;;3.00;79.40;;;;;;5072944;28;20724;-71
2020/12/06 03:00:49;;;;;;;108.15;24.90;;;3.00;79.60;;;;;;5072515;28;20229;-70
2020/12/06 03:03:16;;;;;;;129.07;28.95;;;3.00;79.00;;;;;;5073018;28;20201;-70
2020/12/06 03:05:42;;;;;;;126.65;29.50;;;3.00;78.90;;;;;;5072964;28;20288;-70
2020/12/06 03:08:08;;;;;;;131.30;29.75;;;3.00;79.00;;;;;;5073040;28;20303;-70
2020/12/06 03:10:35;;;;;;;121.60;27.40;;;3.00;78.70;;;;;;5072575;28;20229;-70
2020/12/06 03:13:02;;;;;;;125.40;28.38;;;3.00;78.90;;;;;;5072476;28;20211;-70
2020/12/06 03:15:28;;;;;;;117.57;30.35;;;3.00;78.90;;;;;;5072657;28;20209;-70
2020/12/06 03:17:54;;;;;;;117.07;28.52;;;3.00;79.00;;;;;;5072858;28;20215;-70
2020/12/06 03:20:21;;;;;;;136.18;30.67;;;3.00;78.90;;;;;;5072773;28;20707;-70
2020/12/06 03:22:47;;;;;;;161.43;33.15;;;3.00;79.00;;;;;;5072114;28;20201;-70
2020/12/06 03:25:13;;;;;;;151.13;32.20;;;3.00;78.90;;;;;;5072586;28;20579;-70
2020/12/06 03:27:40;;;;;;;134.93;32.90;;;3.00;78.40;;;;;;5072266;28;20598;-70
2020/12/06 03:30:07;;;;;;;111.78;28.73;;;3.00;78.10;;;;;;5072580;28;20278;-71
2020/12/06 03:32:33;;;;;;;121.60;30.45;;;3.00;77.90;;;;;;5072092;28;20231;-70
2020/12/06 03:34:59;;;;;;;140.75;31.38;;;3.00;77.50;;;;;;5072534;28;20204;-70
2020/12/06 03:37:26;;;;;;;193.95;38.75;;;3.00;77.30;;;;;;5071573;28;20209;-71
2020/12/06 03:39:52;;;;;;;141.63;31.40;;;3.00;76.70;;;;;;5071990;28;20319;-72
2020/12/06 03:42:18;;;;;;;145.35;31.52;;;2.90;75.90;;;;;;5071683;28;20205;-71
2020/12/06 03:44:45;;;;;;;155.88;34.72;;;2.90;75.50;;;;;;5072259;28;20284;-70
2020/12/06 03:47:12;;;;;;;134.63;33.53;;;2.90;75.10;;;;;;5072066;28;20246;-71
2020/12/06 03:49:38;;;;;;;136.65;31.60;;;2.90;74.70;;;;;;5072043;28;20574;-71
2020/12/06 03:52:05;;;;;;;145.98;32.83;;;2.90;74.60;;;;;;5071668;28;20224;-70
2020/12/06 03:54:31;;;;;;;161.77;39.33;;;2.90;74.50;;;;;;5071934;28;20205;-70
2020/12/06 03:56:57;;;;;;;148.48;35.80;;;2.90;74.30;;;;;;5071820;28;20205;-71
2020/12/06 03:59:24;;;;;;;157.15;36.00;;;2.80;73.50;;;;;;5071958;28;20211;-71
2020/12/06 04:01:50;;;;;;;129.65;29.65;;;2.80;72.60;;;;;;5071684;28;20291;-71
2020/12/06 04:04:17;;;;;;;151.13;34.15;;;2.80;72.30;;;;;;5071876;28;20204;-71
2020/12/06 04:06:43;;;;;;;141.25;32.17;;;2.80;72.40;;;;;;5071812;28;20668;-71
2020/12/06 04:09:10;;;;;;;135.35;31.05;;;2.80;72.30;;;;;;5071689;28;20201;-71
2020/12/06 04:11:36;;;;;;;146.50;34.05;;;2.80;72.50;;;;;;5071168;28;20237;-71
2020/12/06 04:14:02;;;;;;;134.95;30.40;;;2.80;72.40;;;;;;5071795;28;20204;-70
2020/12/06 04:16:29;;;;;;;134.40;31.02;;;2.70;72.60;;;;;;5071535;28;20688;-71
2020/12/06 04:18:55;;;;;;;115.55;27.30;;;2.80;73.00;;;;;;5071571;28;20208;-71
2020/12/06 04:21:22;;;;;;;146.35;31.10;;;2.80;73.70;;;;;;5071303;28;20307;-72
2020/12/06 04:23:48;;;;;;;129.15;28.33;;;2.70;74.00;;;;;;5071505;28;20292;-71
2020/12/06 04:26:15;;;;;;;141.65;30.60;;;2.80;74.60;;;;;;5071759;28;20209;-71
2020/12/06 04:28:42;;;;;;;129.48;27.55;;;2.80;75.20;;;;;;5071645;28;20300;-71
2020/12/06 04:31:08;;;;;;;131.38;30.58;;;2.80;75.40;;;;;;5070829;28;20236;-71
2020/12/06 04:33:34;;;;;;;123.10;28.27;;;2.80;75.90;;;;;;5071450;28;20201;-71
2020/12/06 04:36:00;;;;;;;154.32;32.42;;;2.80;76.20;;;;;;5071437;28;20668;-71
2020/12/06 04:38:28;;;;;;;117.65;25.67;;;2.80;76.80;;;;;;5071729;28;20296;-71
2020/12/06 04:40:54;;;;;;;122.22;27.30;;;2.80;76.70;;;;;;5071007;28;20323;-71
2020/12/06 04:43:21;;;;;;;151.27;31.33;;;2.80;76.80;;;;;;5071464;28;20209;-71
2020/12/06 04:45:48;;;;;;;150.40;30.85;;;2.80;76.90;;;;;;5071287;28;20292;-71
2020/12/06 04:48:23;;;;;;;133.70;29.92;;;2.80;77.00;;;;;;5071293;28;20240;-71
2020/12/06 04:50:54;;;;;;;149.48;29.83;;;2.80;77.10;;;;;;5077413;28;20231;-71
2020/12/06 04:53:26;;;;;;;147.38;30.55;;;2.80;77.10;;;;;;5077800;28;20746;-71
2020/12/06 04:55:55;;;;;;;148.77;31.75;;;2.80;77.00;;;;;;5078146;28;20211;-72
2020/12/06 04:58:26;;;;;;;164.43;33.45;;;2.80;76.80;;;;;;5077993;28;20240;-71
2020/12/06 05:00:53;;;;;;;150.50;31.33;;;2.80;76.70;;;;;;5077290;28;20221;-71
2020/12/06 05:03:23;;;;;;;131.93;30.45;;;2.80;76.90;;;;;;5077752;28;20650;-71
2020/12/06 05:05:50;;;;;;;161.02;31.77;;;2.80;76.80;;;;;;5078099;28;20215;-71
2020/12/06 05:08:20;;;;;;;149.23;30.90;;;2.80;76.30;;;;;;5077754;28;20300;-71
2020/12/06 05:10:46;;;;;;;194.07;35.65;;;2.80;76.30;;;;;;5077610;28;20224;-71
2020/12/06 05:13:15;;;;;;;140.75;33.10;;;2.80;75.80;;;;;;5077885;28;20634;-71
2020/12/06 05:15:41;;;;;;;157.07;33.03;;;2.80;75.10;;;;;;5077628;28;20212;-71
2020/12/06 05:18:08;;;;;;;145.88;33.83;;;2.70;74.70;;;;;;5077479;28;20222;-71
2020/12/06 05:20:35;;;;;;;170.15;37.50;;;2.70;74.50;;;;;;5077548;28;20780;-71
2020/12/06 05:23:01;;;;;;;186.90;36.60;;;2.70;73.90;;;;;;5077383;28;20201;-72
2020/12/06 05:25:27;;;;;;;144.38;29.40;;;2.70;72.30;;;;;;5077803;28;20337;-72
2020/12/06 05:27:54;;;;;;;150.73;32.95;;;2.70;71.70;;;;;;5077603;28;20584;-71
2020/12/06 05:30:21;;;;;;;201.80;32.03;;;2.70;71.10;;;;;;5077482;28;20250;-71
2020/12/06 05:32:48;;;;;;;143.77;27.58;;;2.70;70.90;;;;;;5077052;28;20216;-71
2020/12/06 05:35:14;;;;;;;156.77;31.23;;;2.70;71.10;;;;;;5077660;28;20251;-71
2020/12/06 05:37:42;;;;;;;136.38;29.15;;;2.70;71.20;;;;;;5077621;28;20672;-71
2020/12/06 05:40:10;;;;;;;154.25;32.00;;;2.70;71.50;;;;;;5077436;28;20240;-72
2020/12/06 05:42:38;;;;;;;160.13;34.30;;;2.70;71.80;;;;;;5077128;28;20201;-71
2020/12/06 05:45:06;;;;;;;138.52;31.20;;;2.70;71.60;;;;;;5077736;28;20207;-71
2020/12/06 05:47:33;;;;;;;148.95;26.13;;;2.70;71.50;;;;;;5077626;28;20204;-72
2020/12/06 05:50:00;;;;;;;132.95;27.42;;;2.70;71.40;;;;;;5077153;28;20225;-71
2020/12/06 05:52:29;;;;;;;137.27;26.70;;;2.70;71.90;;;;;;5077146;28;20224;-72
2020/12/06 05:54:57;;;;;;;126.10;25.45;;;2.70;72.00;;;;;;5077258;28;20684;-71
2020/12/06 05:57:26;;;;;;;130.45;24.70;;;2.70;72.40;;;;;;5077405;28;20268;-71
2020/12/06 05:59:55;;;;;;;163.15;29.20;;;2.70;72.80;;;;;;5076948;28;20631;-72
2020/12/06 06:02:22;;;;;;;138.82;25.60;;;2.80;73.20;;;;;;5073155;28;20235;-71
2020/12/06 06:04:50;;;;;;;127.15;24.02;;;2.80;73.60;;;;;;5074215;28;20204;-71
2020/12/06 06:07:20;;;;;;;127.05;25.05;;;2.80;74.10;;;;;;5074056;28;20232;-72
2020/12/06 06:09:50;;;;;;;155.57;27.50;;;2.80;74.70;;;;;;5073991;28;20224;-71
2020/12/06 06:12:32;;;;;;;127.47;25.52;;;2.80;75.40;;;;;;5073270;28;20712;-72
2020/12/06 06:15:00;;;;;;;130.13;26.55;;;2.80;99.90;;;;;;5072069;28;20236;-71
2020/12/06 06:17:28;;;;;;;133.55;26.77;;;2.80;99.90;;;;;;5073962;28;20300;-71
2020/12/06 06:19:56;;;;;;;140.93;27.73;;;2.80;99.90;;;;;;5073816;28;20235;-71
2020/12/06 06:22:28;;;;;;;142.05;29.88;;;2.80;99.90;;;;;;5073357;28;20573;-71
2020/12/06 06:24:56;;;;;;;139.13;27.95;;;2.80;99.90;;;;;;5073664;28;20209;-71
2020/12/06 06:27:22;;;;;;;146.90;30.00;;;2.80;99.90;;;;;;5073806;28;20209;-72
2020/12/06 06:29:50;;;;;;;155.05;31.15;;;2.80;99.90;;;;;;5073769;28;20225;-71
2020/12/06 06:32:19;;;;;;;148.43;29.67;;;2.80;99.90;;;;;;5073316;28;20326;-71
2020/12/06 06:34:46;;;;;;;134.43;25.95;;;2.80;99.90;;;;;;5073554;28;20291;-72
2020/12/06 06:37:15;;;;;;;135.35;27.65;;;2.80;99.90;;;;;;5073367;28;20304;-71
2020/12/06 06:39:42;;;;;;;143.48;28.63;;;2.80;99.90;;;;;;5073232;28;20328;-71
2020/12/06 06:42:12;;;;;;;150.00;29.50;;;2.80;99.90;;;;;;5106428;22;20220;-78
2020/12/06 06:44:39;;;;;;;144.60;30.73;;;2.80;99.90;;;;;;5087603;28;20269;-78
2020/12/06 06:47:08;;;;;;;147.02;30.70;;;2.80;99.90;;;;;;5088159;28;20251;-78
2020/12/06 06:49:50;;;;;;;155.32;29.70;;;2.80;99.90;;;;;;5087767;28;20733;-77
2020/12/06 06:52:18;;;;;;;137.50;28.95;;;2.80;99.90;;;;;;5087121;28;20234;-77
2020/12/06 06:54:48;;;;;;;128.70;28.88;;;2.80;99.90;;;;;;5088407;28;20589;-77
2020/12/06 06:57:16;;;;;;;149.68;28.77;;;2.80;99.90;;;;;;5087767;28;20209;-78
2020/12/06 06:59:45;;;;;;;133.90;27.33;;;2.80;99.90;;;;;;5087426;28;20217;-77
2020/12/06 07:02:26;;;;;;;130.25;27.83;;;2.80;99.90;;;;;;5085856;28;20247;-77
2020/12/06 07:04:53;;;;;;;150.15;30.60;;;2.80;99.90;;;;;;5086075;28;20236;-77
2020/12/06 07:07:38;;;;;;;139.48;30.50;;;2.80;99.90;;;;;;5086186;28;20209;-77
2020/12/06 07:10:05;;;;;;;144.85;31.48;;;2.80;99.90;;;;;;5089908;28;20205;-77
2020/12/06 07:12:41;;;;;;;151.77;31.23;;;2.80;99.90;;;;;;5085093;28;20263;-77
2020/12/06 07:15:09;;;;;;;145.27;29.42;;;2.80;99.90;;;;;;5084026;28;20189;-77
2020/12/06 07:17:35;;;;;;;144.18;30.15;;;2.80;99.90;;;;;;5081562;28;20723;-77
2020/12/06 07:20:04;;;;;;;132.27;28.85;;;2.80;99.90;;;;;;5081512;28;20209;-77
2020/12/06 07:22:31;;;;;;;146.02;28.20;;;2.80;99.90;;;;;;5080752;28;20712;-77
2020/12/06 07:24:58;;;;;;;155.52;30.25;;;2.90;99.90;;;;;;5080639;28;20236;-77
2020/12/06 07:27:25;;;;;;;155.68;29.23;;;2.90;99.90;;;;;;5093478;28;20205;-77
2020/12/06 07:29:51;;;;;;;151.52;25.00;;;2.90;99.90;;;;;;5095467;28;20205;-77
2020/12/06 07:32:19;;;;;;;150.60;28.30;;;2.90;99.90;;;;;;5095285;28;20259;-77
2020/12/06 07:34:45;;;;;;;147.55;27.52;;;2.90;99.90;;;;;;5096684;28;20267;-76
2020/12/06 07:37:13;;;;;;;142.18;29.25;;;3.00;99.90;;;;;;5096112;28;20213;-77
2020/12/06 07:39:43;;;;;;;149.38;28.80;;;3.00;99.90;;;;;;5095928;28;20220;-76
2020/12/06 07:42:11;;;;;;;140.63;29.40;;;3.00;99.90;;;;;;5092057;28;20283;-77
2020/12/06 07:44:44;;;;;;;151.77;29.58;;;3.00;99.90;;;;;;5077693;28;20268;-77
2020/12/06 07:47:11;;;;;;;140.10;27.98;;;3.10;99.90;;;;;;5076476;28;20212;-77
2020/12/06 07:49:48;;;;;;;147.73;29.00;;;3.10;99.90;;;;;;5075890;28;20296;-77
2020/12/06 07:52:16;;;;;;;133.25;26.38;;;3.10;99.90;;;;;;5075685;28;20308;-77
2020/12/06 07:54:52;;;;;;;159.23;28.85;;;3.10;99.90;;;;;;5076314;28;20201;-77
2020/12/06 07:57:24;;;;;;;151.30;28.70;;;3.10;99.90;;;;;;5074742;28;20288;-77
2020/12/06 07:59:52;;;;;;;153.32;27.27;;;3.10;99.90;;;;;;5074282;28;20288;-77
2020/12/06 08:02:20;;;;;;;149.25;27.70;;;3.10;99.90;;;;;;5073517;28;20307;-77
2020/12/06 08:04:46;;;;;;;164.45;30.30;;;3.10;99.90;;;;;;5072918;28;20205;-77
2020/12/06 08:07:19;;;;;;;155.75;28.52;;;3.10;99.90;;;;;;5074230;28;20235;-77
2020/12/06 08:09:47;;;;;;;136.25;26.48;;;3.20;99.90;;;;;;5074951;28;20212;-77
2020/12/06 08:12:16;;;;;;;155.27;29.25;;;3.20;99.90;;;;;;5074382;28;20278;-77
2020/12/06 08:14:43;;;;;;;150.10;29.85;;;3.20;99.90;;;;;;5074901;28;20213;-77
2020/12/06 08:17:10;;;;;;;156.95;25.73;;;3.20;99.90;;;;;;5074351;28;20208;-77
2020/12/06 08:19:38;;;;;;;175.45;30.52;;;3.20;99.90;;;;;;5075159;28;20236;-77
2020/12/06 08:22:05;;;;;;;161.48;28.48;;;3.20;99.90;;;;;;5074352;28;20243;-77
2020/12/06 08:24:32;;;;;;;174.18;30.63;;;3.20;99.90;;;;;;5073984;28;20209;-77
2020/12/06 08:27:00;;;;;;;196.90;34.90;;;3.20;99.90;;;;;;5074844;28;20296;-77
2020/12/06 08:29:41;;;;;;;159.00;31.08;;;3.20;99.90;;;;;;5074709;28;20295;-77
2020/12/06 08:32:08;;;;;;;187.88;30.00;;;3.20;99.90;;;;;;5073722;28;20237;-77
2020/12/06 08:34:35;;;;;;;148.23;31.77;;;3.20;99.90;;;;;;5073513;28;20738;-77
2020/12/06 08:37:19;;;;;;;192.15;31.15;;;3.20;99.90;;;;;;5073859;28;20232;-77
2020/12/06 08:39:46;;;;;;;167.50;26.02;;;3.20;99.90;;;;;;5073912;28;20235;-77
2020/12/06 08:42:18;;;;;;;170.38;27.55;;;3.30;99.90;;;;;;5073025;28;20319;-77
2020/12/06 08:44:58;;;;;;;174.63;30.92;;;3.30;99.90;;;;;;5071701;28;20204;-74
2020/12/06 08:47:27;;;;;;;175.38;31.13;;;3.30;99.90;;;;;;5071565;28;20263;-74
2020/12/06 08:50:13;;;;;;;175.82;32.33;;;3.30;99.90;;;;;;5071247;28;20204;-74
2020/12/06 08:52:40;;;;;;;196.52;28.80;;;3.30;99.90;;;;;;5070790;28;20683;-74
2020/12/06 08:55:25;;;;;;;234.15;31.67;;;3.30;99.90;;;;;;5071512;28;20213;-74
2020/12/06 08:57:51;;;;;;;171.85;29.67;;;3.30;99.90;;;;;;5063612;28;20211;-74
2020/12/06 09:00:18;;;;;;;146.43;28.55;;;3.30;99.90;;;;;;5071271;28;20232;-74
2020/12/06 09:02:45;;;;;;;164.88;30.67;;;3.40;99.90;;;;;;5077955;28;20220;-77
2020/12/06 09:05:11;;;;;;;158.63;29.13;;;3.40;99.90;;;;;;5084590;28;20220;-77
2020/12/06 09:07:39;;;;;;;245.13;31.83;;;3.60;99.90;;;;;;5084363;28;20205;-76
2020/12/06 09:10:06;;;;;;;215.55;32.45;;;3.60;99.90;;;;;;5083753;28;20215;-77
2020/12/06 09:12:33;;;;;;;241.18;31.17;;;3.70;99.90;;;;;;5083114;28;20232;-77
2020/12/06 09:15:00;;;;;;;231.13;31.65;;;3.70;99.90;;;;;;5083081;28;20204;-77
2020/12/06 09:17:26;;;;;;;269.75;35.08;;;3.70;99.90;;;;;;5075539;28;20207;-77
2020/12/06 09:19:54;;;;;;;262.58;33.58;;;3.80;99.90;;;;;;5071835;28;20771;-77
2020/12/06 09:22:20;;;;;;;364.52;39.55;;;3.80;99.90;;;;;;5071550;28;20229;-76
2020/12/06 09:24:46;;;;;;;227.85;30.13;;;3.90;99.90;;;;;;5072102;28;20200;-77
2020/12/06 09:27:13;;;;;;;216.93;30.70;;;3.90;99.90;;;;;;5071773;28;20209;-77
2020/12/06 09:29:39;;;;;;;218.30;33.60;;;3.90;99.90;;;;;;5070951;28;20588;-77
2020/12/06 09:32:05;;;;;;;164.30;30.10;;;3.90;99.90;;;;;;5070563;28;20261;-77
2020/12/06 09:34:31;;;;;;;232.05;33.03;;;3.90;99.90;;;;;;5070733;28;20292;-77
2020/12/06 09:36:59;;;;;;;194.00;30.05;;;3.90;99.90;;;;;;5073478;28;20292;-76
2020/12/06 09:39:25;;;;;;;217.27;32.00;;;3.90;99.90;;;;;;5074749;28;20201;-77
2020/12/06 09:41:51;;;;;;;189.18;28.55;;;3.90;99.90;;;;;;5074303;28;20236;-77
2020/12/06 09:44:18;;;;;;;270.85;33.33;;;4.00;99.90;;;;;;5074735;28;20212;-77
2020/12/06 09:46:44;;;;;;;259.00;31.05;;;4.00;99.90;;;;;;5074814;28;20291;-77
2020/12/06 09:49:11;;;;;;;150.55;27.60;;;4.00;99.90;;;;;;5075077;28;20589;-77
2020/12/06 09:51:37;;;;;;;157.35;30.20;;;4.00;99.90;;;;;;5074268;28;20393;-77
2020/12/06 09:54:04;;;;;;;196.63;26.73;;;4.00;99.90;;;;;;5074451;28;20312;-77
2020/12/06 09:56:31;;;;;;;191.82;26.55;;;4.00;99.90;;;;;;5074571;28;20308;-77
2020/12/06 09:58:58;;;;;;;150.80;25.35;;;4.00;99.90;;;;;;5074529;28;20211;-77
2020/12/06 10:01:24;;;;;;;157.15;26.27;;;4.00;99.90;;;;;;5073907;28;20316;-77
2020/12/06 10:03:51;;;;;;;130.02;23.83;;;4.00;99.90;;;;;;5078998;28;20229;-77
2020/12/06 10:06:23;;;;;;;147.65;24.33;;;4.00;99.90;;;;;;5083905;28;20280;-77
2020/12/06 10:08:49;;;;;;;136.98;22.98;;;4.10;99.90;;;;;;5083528;28;20205;-78
2020/12/06 10:11:16;;;;;;;176.63;29.00;;;4.10;99.90;;;;;;5083915;28;20236;-78
2020/12/06 10:13:43;;;;;;;181.68;30.52;;;4.10;99.90;;;;;;5076313;28;20296;-77
2020/12/06 10:16:09;;;;;;;178.05;28.83;;;4.10;99.90;;;;;;5075516;28;20676;-76
2020/12/06 10:18:35;;;;;;;221.55;27.63;;;4.10;99.90;;;;;;5075810;28;20297;-77
2020/12/06 10:21:02;;;;;;;173.68;26.75;;;4.10;99.90;;;;;;5079664;28;20320;-77
2020/12/06 10:23:28;;;;;;;204.95;26.23;;;4.10;99.90;;;;;;5079517;28;20231;-77
2020/12/06 10:25:54;;;;;;;111.65;19.50;;;4.10;99.90;;;;;;5085863;28;20291;-78
2020/12/06 10:28:21;;;;;;;200.55;23.35;;;4.10;99.90;;;;;;5080029;28;20622;-77
2020/12/06 10:30:48;;;;;;;192.55;24.55;;;4.10;99.90;;;;;;5076662;28;20304;-77
2020/12/06 10:33:14;;;;;;;115.70;19.15;;;4.10;99.90;;;;;;5076522;28;20231;-77
2020/12/06 10:35:44;;;;;;;123.10;22.38;;;4.10;99.90;;;;;;5076824;28;20299;-77
2020/12/06 10:38:10;;;;;;;215.35;24.13;;;4.10;99.90;;;;;;5077269;28;20247;-77
2020/12/06 10:40:37;;;;;;;144.52;21.48;;;4.10;99.90;;;;;;5076154;28;20216;-77
2020/12/06 10:43:03;;;;;;;142.60;22.55;;;4.10;99.90;;;;;;5076314;28;20205;-77
2020/12/06 10:45:33;;;;;;;129.68;24.27;;;4.10;99.90;;;;;;5077443;28;20303;-77
2020/12/06 10:47:59;;;;;;;151.57;24.30;;;4.10;99.90;;;;;;5082151;28;20209;-77
2020/12/06 10:50:26;;;;;;;107.80;18.38;;;4.10;99.90;;;;;;5076526;28;20262;-76
2020/12/06 10:52:52;;;;;;;103.95;17.88;;;4.10;99.90;;;;;;5076891;28;20278;-76
2020/12/06 10:55:24;;;;;;;104.68;18.95;;;4.10;99.90;;;;;;5074022;28;20632;-74
2020/12/06 10:57:51;;;;;;;164.63;24.75;;;4.20;99.90;;;;;;5073206;28;20587;-77
2020/12/06 11:00:17;;;;;;;126.30;24.17;;;4.20;99.90;;;;;;5074940;28;20219;-78
2020/12/06 11:02:45;;;;;;;123.72;23.35;;;4.20;99.90;;;;;;5077540;28;20232;-78
2020/12/06 11:05:12;;;;;;;123.72;21.55;;;4.20;99.90;;;;;;5073870;28;20300;-75
2020/12/06 11:07:38;;;;;;;127.07;20.02;;;4.30;99.90;;;;;;5073203;28;20266;-75
2020/12/06 11:10:05;;;;;;;112.70;21.13;;;4.30;99.90;;;;;;5072923;28;20311;-75
2020/12/06 11:12:31;;;;;;;117.70;22.77;;;4.40;99.90;;;;;;5072780;28;20236;-75
2020/12/06 11:14:57;;;;;;;118.10;22.55;;;4.40;99.90;;;;;;5075978;28;20216;-76
2020/12/06 11:17:24;;;;;;;116.43;23.48;;;4.40;99.90;;;;;;5074390;28;20694;-76
2020/12/06 11:19:51;;;;;;;112.95;21.58;;;4.40;99.90;;;;;;5073203;28;20247;-77
2020/12/06 11:22:18;;;;;;;141.82;34.88;;;4.40;99.90;;;;;;5070535;28;20224;-76
2020/12/06 11:24:44;;;;;;;125.28;25.45;;;4.40;99.90;;;;;;5072589;28;20209;-76
2020/12/06 11:27:10;;;;;;;134.43;29.90;;;4.40;99.90;;;;;;5072926;28;20296;-76
2020/12/06 11:29:37;;;;;;;155.50;41.08;;;4.30;99.90;;;;;;5073017;28;20602;-76
2020/12/06 11:32:03;;;;;;;131.25;38.55;;;4.40;99.90;;;;;;5071867;28;20270;-76
2020/12/06 11:34:30;;;;;;;125.95;32.25;;;4.30;99.90;;;;;;5072419;28;20266;-76
2020/12/06 11:36:57;;;;;;;111.47;25.67;;;4.30;99.90;;;;;;5072253;28;20747;-76
2020/12/06 11:39:23;;;;;;;138.38;26.52;;;4.40;99.90;;;;;;5072137;28;20220;-76
2020/12/06 11:41:53;;;;;;;126.18;21.42;;;4.40;99.90;;;;;;5071995;28;20320;-76
2020/12/06 11:44:19;;;;;;;113.28;22.38;;;4.40;99.90;;;;;;5072286;28;20200;-76
2020/12/06 11:46:46;;;;;;;103.20;19.65;;;4.40;99.90;;;;;;5072368;28;20204;-75
2020/12/06 11:49:12;;;;;;;110.85;20.02;;;4.50;99.90;;;;;;5072191;28;20270;-76
2020/12/06 11:51:39;;;;;;;129.20;20.02;;;4.50;99.90;;;;;;5071904;28;20229;-75
2020/12/06 11:54:06;;;;;;;107.53;19.52;;;4.50;99.90;;;;;;5072191;28;20595;-75
2020/12/06 11:56:32;;;;;;;109.10;19.40;;;4.60;99.90;;;;;;5072223;28;20586;-75
2020/12/06 11:58:59;;;;;;;112.20;19.45;;;4.60;99.90;;;;;;5072056;28;20213;-77
2020/12/06 12:01:25;;;;;;;121.57;21.85;;;4.60;99.90;;;;;;5071942;28;20221;-76
2020/12/06 12:03:51;;;;;;;103.70;19.55;;;4.60;99.90;;;;;;5072898;28;20239;-76
2020/12/06 12:06:18;;;;;;;99.22;20.02;;;4.70;99.90;;;;;;5072362;28;20557;-76
2020/12/06 12:08:46;;;;;;;113.95;21.98;;;4.70;99.90;;;;;;5072372;28;20867;-75
2020/12/06 12:11:13;;;;;;;121.68;23.30;;;4.80;99.90;;;;;;5072205;28;20235;-76
2020/12/06 12:13:40;;;;;;;134.90;23.05;;;4.80;99.90;;;;;;5071444;28;20252;-75
2020/12/06 12:16:06;;;;;;;122.22;24.15;;;4.80;99.90;;;;;;5071676;28;20205;-75
2020/12/06 12:18:32;;;;;;;144.40;28.02;;;4.90;99.90;;;;;;5071769;28;20582;-75
2020/12/06 12:20:59;;;;;;;115.97;25.45;;;4.90;99.90;;;;;;5071277;28;20907;-76
2020/12/06 12:23:25;;;;;;;117.65;23.50;;;4.90;99.90;;;;;;5071608;28;20287;-75
2020/12/06 12:25:51;;;;;;;96.45;18.08;;;5.00;99.90;;;;;;5071778;28;20262;-76
2020/12/06 12:28:19;;;;;;;123.78;24.65;;;5.00;99.90;;;;;;5071814;28;20631;-76
2020/12/06 12:30:45;;;;;;;112.85;19.08;;;5.10;99.90;;;;;;5071466;28;20209;-76